sensor_id;sensor_type;location;lat;lon;timestamp;P1;durP1;ratioP1;P2;durP2;ratioP2
43435;SDS011;36399;51.444;-2.018;2023-09-18T00:00:56;4.43;;;2.17;;
43435;SDS011;36399;51.444;-2.018;2023-09-18T00:03:23;2.72;;;2.53;;
43435;SDS011;36399;51.444;-2.018;2023-09-18T00:05:52;2.47;;;2.20;;
43435;SDS011;36399;51.444;-2.018;2023-09-18T00:08:18;2.60;;;1.83;;
43435;SDS011;36399;51.444;-2.018;2023-09-18T00:10:52;2.42;;;2.22;;
43435;SDS011;36399;51.444;-2.018;2023-09-18T00:13:20;4.82;;;2.95;;
43435;SDS011;36399;51.444;-2.018;2023-09-18T00:15:47;3.72;;;3.17;;
43435;SDS011;36399;51.444;-2.018;2023-09-18T00:18:15;25.40;;;3.13;;
43435;SDS011;36399;51.444;-2.018;2023-09-18T00:20:41;4.07;;;2.28;;
43435;SDS011;36399;51.444;-2.018;2023-09-18T00:23:08;1.85;;;1.52;;
43435;SDS011;36399;51.444;-2.018;2023-09-18T00:25:34;2.97;;;2.60;;
43435;SDS011;36399;51.444;-2.018;2023-09-18T00:28:01;7.68;;;4.72;;
43435;SDS011;36399;51.444;-2.018;2023-09-18T00:30:27;4.85;;;3.40;;
43435;SDS011;36399;51.444;-2.018;2023-09-18T00:32:53;6.28;;;5.38;;
43435;SDS011;36399;51.444;-2.018;2023-09-18T00:35:19;6.40;;;3.60;;
43435;SDS011;36399;51.444;-2.018;2023-09-18T00:37:44;4.22;;;1.77;;
43435;SDS011;36399;51.444;-2.018;2023-09-18T00:40:11;9.82;;;3.70;;
43435;SDS011;36399;51.444;-2.018;2023-09-18T00:42:37;8.25;;;3.42;;
43435;SDS011;36399;51.444;-2.018;2023-09-18T00:45:03;5.03;;;3.13;;
43435;SDS011;36399;51.444;-2.018;2023-09-18T00:47:29;5.00;;;4.20;;
43435;SDS011;36399;51.444;-2.018;2023-09-18T00:49:55;5.32;;;2.63;;
43435;SDS011;36399;51.444;-2.018;2023-09-18T00:52:22;1.92;;;1.05;;
43435;SDS011;36399;51.444;-2.018;2023-09-18T00:54:49;3.53;;;3.13;;
43435;SDS011;36399;51.444;-2.018;2023-09-18T00:57:15;7.07;;;3.35;;
43435;SDS011;36399;51.444;-2.018;2023-09-18T00:59:41;3.45;;;1.48;;
43435;SDS011;36399;51.444;-2.018;2023-09-18T01:02:07;4.70;;;3.72;;
43435;SDS011;36399;51.444;-2.018;2023-09-18T01:04:34;7.13;;;3.28;;
43435;SDS011;36399;51.444;-2.018;2023-09-18T01:07:00;6.97;;;3.08;;
43435;SDS011;36399;51.444;-2.018;2023-09-18T01:09:29;9.25;;;3.70;;
43435;SDS011;36399;51.444;-2.018;2023-09-18T01:14:33;2.38;;;1.38;;
43435;SDS011;36399;51.444;-2.018;2023-09-18T01:17:06;1.33;;;0.77;;
43435;SDS011;36399;51.444;-2.018;2023-09-18T01:22:06;1.42;;;0.98;;
43435;SDS011;36399;51.444;-2.018;2023-09-18T01:24:34;0.50;;;0.50;;
43435;SDS011;36399;51.444;-2.018;2023-09-18T01:27:01;0.40;;;0.40;;
43435;SDS011;36399;51.444;-2.018;2023-09-18T01:29:28;0.63;;;0.47;;
43435;SDS011;36399;51.444;-2.018;2023-09-18T01:31:54;0.47;;;0.47;;
43435;SDS011;36399;51.444;-2.018;2023-09-18T01:34:25;1.45;;;0.90;;
43435;SDS011;36399;51.444;-2.018;2023-09-18T01:36:57;2.20;;;1.60;;
43435;SDS011;36399;51.444;-2.018;2023-09-18T01:39:23;0.28;;;0.22;;
43435;SDS011;36399;51.444;-2.018;2023-09-18T01:41:52;1.02;;;0.63;;
43435;SDS011;36399;51.444;-2.018;2023-09-18T01:44:18;0.98;;;0.73;;
43435;SDS011;36399;51.444;-2.018;2023-09-18T01:46:47;3.03;;;0.80;;
43435;SDS011;36399;51.444;-2.018;2023-09-18T01:49:25;1.23;;;1.13;;
43435;SDS011;36399;51.444;-2.018;2023-09-18T01:51:52;1.17;;;1.00;;
43435;SDS011;36399;51.444;-2.018;2023-09-18T01:54:18;2.70;;;0.40;;
43435;SDS011;36399;51.444;-2.018;2023-09-18T01:56:44;1.48;;;0.80;;
43435;SDS011;36399;51.444;-2.018;2023-09-18T01:59:10;2.28;;;2.08;;
43435;SDS011;36399;51.444;-2.018;2023-09-18T02:01:36;2.28;;;1.33;;
43435;SDS011;36399;51.444;-2.018;2023-09-18T02:04:04;10.65;;;4.60;;
43435;SDS011;36399;51.444;-2.018;2023-09-18T02:06:30;2.10;;;1.92;;
43435;SDS011;36399;51.444;-2.018;2023-09-18T02:08:56;3.80;;;2.58;;
43435;SDS011;36399;51.444;-2.018;2023-09-18T02:11:22;5.57;;;4.55;;
43435;SDS011;36399;51.444;-2.018;2023-09-18T02:13:48;5.60;;;5.10;;
43435;SDS011;36399;51.444;-2.018;2023-09-18T02:16:14;5.10;;;2.22;;
43435;SDS011;36399;51.444;-2.018;2023-09-18T02:18:40;6.30;;;3.78;;
43435;SDS011;36399;51.444;-2.018;2023-09-18T02:21:06;3.95;;;1.92;;
43435;SDS011;36399;51.444;-2.018;2023-09-18T02:23:31;6.07;;;4.53;;
43435;SDS011;36399;51.444;-2.018;2023-09-18T02:25:58;3.65;;;3.20;;
43435;SDS011;36399;51.444;-2.018;2023-09-18T02:28:24;9.73;;;3.85;;
43435;SDS011;36399;51.444;-2.018;2023-09-18T02:30:51;10.07;;;3.63;;
43435;SDS011;36399;51.444;-2.018;2023-09-18T02:33:17;2.70;;;1.98;;
43435;SDS011;36399;51.444;-2.018;2023-09-18T02:35:43;2.35;;;1.67;;
43435;SDS011;36399;51.444;-2.018;2023-09-18T02:38:09;4.93;;;4.33;;
43435;SDS011;36399;51.444;-2.018;2023-09-18T02:40:35;9.07;;;5.57;;
43435;SDS011;36399;51.444;-2.018;2023-09-18T02:43:01;13.95;;;4.13;;
43435;SDS011;36399;51.444;-2.018;2023-09-18T02:45:27;7.67;;;5.13;;
43435;SDS011;36399;51.444;-2.018;2023-09-18T02:47:53;11.52;;;5.78;;
43435;SDS011;36399;51.444;-2.018;2023-09-18T02:50:19;3.73;;;3.43;;
43435;SDS011;36399;51.444;-2.018;2023-09-18T02:52:45;5.60;;;4.45;;
43435;SDS011;36399;51.444;-2.018;2023-09-18T02:55:11;4.70;;;4.07;;
43435;SDS011;36399;51.444;-2.018;2023-09-18T02:57:39;3.83;;;3.53;;
43435;SDS011;36399;51.444;-2.018;2023-09-18T03:00:05;6.82;;;4.57;;
43435;SDS011;36399;51.444;-2.018;2023-09-18T03:02:31;4.47;;;3.92;;
43435;SDS011;36399;51.444;-2.018;2023-09-18T03:04:57;3.95;;;2.60;;
43435;SDS011;36399;51.444;-2.018;2023-09-18T03:07:23;5.97;;;4.17;;
43435;SDS011;36399;51.444;-2.018;2023-09-18T03:09:49;2.40;;;2.20;;
43435;SDS011;36399;51.444;-2.018;2023-09-18T03:12:15;5.07;;;4.50;;
43435;SDS011;36399;51.444;-2.018;2023-09-18T03:14:41;6.23;;;4.73;;
43435;SDS011;36399;51.444;-2.018;2023-09-18T03:17:07;3.80;;;2.77;;
43435;SDS011;36399;51.444;-2.018;2023-09-18T03:19:33;7.17;;;2.83;;
43435;SDS011;36399;51.444;-2.018;2023-09-18T03:21:59;26.93;;;3.47;;
43435;SDS011;36399;51.444;-2.018;2023-09-18T03:24:25;6.40;;;3.97;;
43435;SDS011;36399;51.444;-2.018;2023-09-18T03:26:51;2.60;;;2.30;;
43435;SDS011;36399;51.444;-2.018;2023-09-18T03:29:20;4.43;;;4.00;;
43435;SDS011;36399;51.444;-2.018;2023-09-18T03:31:45;4.10;;;3.70;;
43435;SDS011;36399;51.444;-2.018;2023-09-18T03:34:12;3.33;;;3.10;;
43435;SDS011;36399;51.444;-2.018;2023-09-18T03:36:38;4.37;;;3.23;;
43435;SDS011;36399;51.444;-2.018;2023-09-18T03:39:04;3.00;;;2.70;;
43435;SDS011;36399;51.444;-2.018;2023-09-18T03:41:30;3.93;;;3.37;;
43435;SDS011;36399;51.444;-2.018;2023-09-18T03:44:00;5.13;;;4.63;;
43435;SDS011;36399;51.444;-2.018;2023-09-18T03:46:26;9.60;;;3.33;;
43435;SDS011;36399;51.444;-2.018;2023-09-18T03:48:52;10.17;;;2.57;;
43435;SDS011;36399;51.444;-2.018;2023-09-18T03:51:18;3.37;;;1.97;;
43435;SDS011;36399;51.444;-2.018;2023-09-18T03:53:45;2.70;;;2.50;;
43435;SDS011;36399;51.444;-2.018;2023-09-18T03:56:12;4.43;;;3.13;;
43435;SDS011;36399;51.444;-2.018;2023-09-18T03:58:38;3.97;;;2.20;;
43435;SDS011;36399;51.444;-2.018;2023-09-18T04:01:04;3.43;;;3.13;;
43435;SDS011;36399;51.444;-2.018;2023-09-18T04:03:29;9.30;;;4.10;;
43435;SDS011;36399;51.444;-2.018;2023-09-18T04:05:55;3.43;;;3.13;;
43435;SDS011;36399;51.444;-2.018;2023-09-18T04:08:21;3.07;;;2.87;;
43435;SDS011;36399;51.444;-2.018;2023-09-18T04:10:47;4.13;;;2.27;;
43435;SDS011;36399;51.444;-2.018;2023-09-18T04:13:13;3.70;;;2.83;;
43435;SDS011;36399;51.444;-2.018;2023-09-18T04:15:39;2.57;;;2.37;;
43435;SDS011;36399;51.444;-2.018;2023-09-18T04:18:05;3.47;;;3.17;;
43435;SDS011;36399;51.444;-2.018;2023-09-18T04:20:31;2.73;;;2.20;;
43435;SDS011;36399;51.444;-2.018;2023-09-18T04:23:16;11.13;;;3.90;;
43435;SDS011;36399;51.444;-2.018;2023-09-18T04:25:47;3.93;;;2.57;;
43435;SDS011;36399;51.444;-2.018;2023-09-18T04:28:14;6.37;;;3.40;;
43435;SDS011;36399;51.444;-2.018;2023-09-18T04:30:41;2.83;;;2.43;;
43435;SDS011;36399;51.444;-2.018;2023-09-18T04:33:07;3.60;;;3.30;;
43435;SDS011;36399;51.444;-2.018;2023-09-18T04:35:33;3.20;;;2.90;;
43435;SDS011;36399;51.444;-2.018;2023-09-18T04:37:59;2.67;;;2.47;;
43435;SDS011;36399;51.444;-2.018;2023-09-18T04:40:25;4.37;;;3.07;;
43435;SDS011;36399;51.444;-2.018;2023-09-18T04:42:58;3.80;;;2.23;;
43435;SDS011;36399;51.444;-2.018;2023-09-18T04:45:24;5.13;;;4.73;;
43435;SDS011;36399;51.444;-2.018;2023-09-18T04:47:51;3.77;;;2.10;;
43435;SDS011;36399;51.444;-2.018;2023-09-18T04:50:18;3.60;;;1.63;;
43435;SDS011;36399;51.444;-2.018;2023-09-18T04:52:44;6.40;;;4.17;;
43435;SDS011;36399;51.444;-2.018;2023-09-18T04:55:10;5.17;;;2.33;;
43435;SDS011;36399;51.444;-2.018;2023-09-18T04:57:37;1.80;;;1.70;;
43435;SDS011;36399;51.444;-2.018;2023-09-18T05:00:03;3.93;;;3.63;;
43435;SDS011;36399;51.444;-2.018;2023-09-18T05:02:38;1.33;;;1.27;;
43435;SDS011;36399;51.444;-2.018;2023-09-18T05:05:08;2.13;;;1.30;;
43435;SDS011;36399;51.444;-2.018;2023-09-18T05:07:37;6.70;;;2.20;;
43435;SDS011;36399;51.444;-2.018;2023-09-18T05:10:03;18.23;;;3.03;;
43435;SDS011;36399;51.444;-2.018;2023-09-18T05:12:30;3.17;;;2.87;;
43435;SDS011;36399;51.444;-2.018;2023-09-18T05:14:56;5.50;;;2.97;;
43435;SDS011;36399;51.444;-2.018;2023-09-18T05:17:27;3.17;;;2.27;;
43435;SDS011;36399;51.444;-2.018;2023-09-18T05:20:06;2.17;;;1.98;;
43435;SDS011;36399;51.444;-2.018;2023-09-18T05:22:33;8.17;;;4.23;;
43435;SDS011;36399;51.444;-2.018;2023-09-18T05:24:59;2.20;;;1.93;;
43435;SDS011;36399;51.444;-2.018;2023-09-18T05:27:25;2.47;;;2.27;;
43435;SDS011;36399;51.444;-2.018;2023-09-18T05:29:51;1.47;;;1.37;;
43435;SDS011;36399;51.444;-2.018;2023-09-18T05:32:17;2.90;;;2.17;;
43435;SDS011;36399;51.444;-2.018;2023-09-18T05:34:46;3.23;;;2.93;;
43435;SDS011;36399;51.444;-2.018;2023-09-18T05:37:12;6.30;;;3.73;;
43435;SDS011;36399;51.444;-2.018;2023-09-18T05:39:38;3.93;;;1.90;;
43435;SDS011;36399;51.444;-2.018;2023-09-18T05:42:07;3.67;;;3.07;;
43435;SDS011;36399;51.444;-2.018;2023-09-18T05:44:33;1.80;;;1.70;;
43435;SDS011;36399;51.444;-2.018;2023-09-18T05:46:59;7.73;;;1.97;;
43435;SDS011;36399;51.444;-2.018;2023-09-18T05:49:25;4.70;;;3.00;;
43435;SDS011;36399;51.444;-2.018;2023-09-18T05:51:52;3.23;;;3.00;;
43435;SDS011;36399;51.444;-2.018;2023-09-18T05:54:18;5.03;;;2.53;;
43435;SDS011;36399;51.444;-2.018;2023-09-18T05:56:45;2.67;;;2.47;;
43435;SDS011;36399;51.444;-2.018;2023-09-18T05:59:11;4.20;;;3.80;;
43435;SDS011;36399;51.444;-2.018;2023-09-18T06:01:37;1.70;;;1.60;;
43435;SDS011;36399;51.444;-2.018;2023-09-18T06:04:03;4.00;;;2.47;;
43435;SDS011;36399;51.444;-2.018;2023-09-18T06:06:29;1.93;;;1.80;;
43435;SDS011;36399;51.444;-2.018;2023-09-18T06:08:55;0.87;;;0.37;;
43435;SDS011;36399;51.444;-2.018;2023-09-18T06:11:21;3.53;;;2.57;;
43435;SDS011;36399;51.444;-2.018;2023-09-18T06:13:47;0.53;;;0.53;;
43435;SDS011;36399;51.444;-2.018;2023-09-18T06:16:13;3.33;;;1.43;;
43435;SDS011;36399;51.444;-2.018;2023-09-18T06:18:39;1.27;;;1.17;;
43435;SDS011;36399;51.444;-2.018;2023-09-18T06:21:05;1.37;;;1.10;;
43435;SDS011;36399;51.444;-2.018;2023-09-18T06:23:31;0.93;;;0.77;;
43435;SDS011;36399;51.444;-2.018;2023-09-18T06:25:57;0.93;;;0.70;;
43435;SDS011;36399;51.444;-2.018;2023-09-18T06:28:25;0.67;;;0.67;;
43435;SDS011;36399;51.444;-2.018;2023-09-18T06:30:50;0.43;;;0.43;;
43435;SDS011;36399;51.444;-2.018;2023-09-18T06:33:16;1.47;;;1.37;;
43435;SDS011;36399;51.444;-2.018;2023-09-18T06:35:42;2.47;;;0.83;;
43435;SDS011;36399;51.444;-2.018;2023-09-18T06:38:08;0.43;;;0.43;;
43435;SDS011;36399;51.444;-2.018;2023-09-18T06:40:37;0.70;;;0.50;;
43435;SDS011;36399;51.444;-2.018;2023-09-18T06:43:04;1.07;;;1.07;;
43435;SDS011;36399;51.444;-2.018;2023-09-18T06:45:33;0.30;;;0.30;;
43435;SDS011;36399;51.444;-2.018;2023-09-18T06:47:59;0.97;;;0.70;;
43435;SDS011;36399;51.444;-2.018;2023-09-18T06:50:26;1.10;;;1.00;;
43435;SDS011;36399;51.444;-2.018;2023-09-18T06:52:51;0.50;;;0.33;;
43435;SDS011;36399;51.444;-2.018;2023-09-18T06:55:17;2.67;;;1.70;;
43435;SDS011;36399;51.444;-2.018;2023-09-18T06:57:44;1.10;;;0.97;;
43435;SDS011;36399;51.444;-2.018;2023-09-18T07:00:13;1.13;;;0.90;;
43435;SDS011;36399;51.444;-2.018;2023-09-18T07:02:40;0.97;;;0.83;;
43435;SDS011;36399;51.444;-2.018;2023-09-18T07:05:06;7.13;;;2.67;;
43435;SDS011;36399;51.444;-2.018;2023-09-18T07:07:32;1.30;;;0.97;;
43435;SDS011;36399;51.444;-2.018;2023-09-18T07:09:58;1.67;;;1.50;;
43435;SDS011;36399;51.444;-2.018;2023-09-18T07:12:24;3.83;;;1.90;;
43435;SDS011;36399;51.444;-2.018;2023-09-18T07:14:50;0.50;;;0.50;;
43435;SDS011;36399;51.444;-2.018;2023-09-18T07:17:16;1.23;;;1.17;;
43435;SDS011;36399;51.444;-2.018;2023-09-18T07:19:42;1.07;;;0.87;;
43435;SDS011;36399;51.444;-2.018;2023-09-18T07:22:08;0.63;;;0.63;;
43435;SDS011;36399;51.444;-2.018;2023-09-18T07:24:34;1.17;;;1.07;;
43435;SDS011;36399;51.444;-2.018;2023-09-18T07:27:00;3.90;;;1.47;;
43435;SDS011;36399;51.444;-2.018;2023-09-18T07:29:26;0.97;;;0.87;;
43435;SDS011;36399;51.444;-2.018;2023-09-18T07:31:52;1.13;;;0.70;;
43435;SDS011;36399;51.444;-2.018;2023-09-18T07:34:18;1.87;;;1.40;;
43435;SDS011;36399;51.444;-2.018;2023-09-18T07:36:44;1.23;;;0.80;;
43435;SDS011;36399;51.444;-2.018;2023-09-18T07:39:10;2.23;;;0.60;;
43435;SDS011;36399;51.444;-2.018;2023-09-18T07:41:39;3.50;;;2.43;;
43435;SDS011;36399;51.444;-2.018;2023-09-18T07:44:05;1.10;;;1.00;;
43435;SDS011;36399;51.444;-2.018;2023-09-18T07:46:31;0.77;;;0.77;;
43435;SDS011;36399;51.444;-2.018;2023-09-18T07:48:57;1.17;;;1.03;;
43435;SDS011;36399;51.444;-2.018;2023-09-18T07:51:23;2.17;;;1.87;;
43435;SDS011;36399;51.444;-2.018;2023-09-18T07:53:49;0.93;;;0.93;;
43435;SDS011;36399;51.444;-2.018;2023-09-18T07:56:15;0.93;;;0.93;;
43435;SDS011;36399;51.444;-2.018;2023-09-18T07:58:41;3.13;;;1.87;;
43435;SDS011;36399;51.444;-2.018;2023-09-18T08:01:08;0.13;;;0.13;;
43435;SDS011;36399;51.444;-2.018;2023-09-18T08:03:35;2.40;;;1.98;;
43435;SDS011;36399;51.444;-2.018;2023-09-18T08:06:01;2.15;;;1.23;;
43435;SDS011;36399;51.444;-2.018;2023-09-18T08:08:30;1.10;;;0.98;;
43435;SDS011;36399;51.444;-2.018;2023-09-18T08:10:58;1.17;;;1.08;;
43435;SDS011;36399;51.444;-2.018;2023-09-18T08:13:26;0.70;;;0.65;;
43435;SDS011;36399;51.444;-2.018;2023-09-18T08:15:52;0.60;;;0.60;;
43435;SDS011;36399;51.444;-2.018;2023-09-18T08:18:19;2.45;;;2.25;;
43435;SDS011;36399;51.444;-2.018;2023-09-18T08:20:45;1.38;;;0.82;;
43435;SDS011;36399;51.444;-2.018;2023-09-18T08:23:11;2.75;;;1.75;;
43435;SDS011;36399;51.444;-2.018;2023-09-18T08:25:40;1.17;;;0.45;;
43435;SDS011;36399;51.444;-2.018;2023-09-18T08:28:07;0.40;;;0.40;;
43435;SDS011;36399;51.444;-2.018;2023-09-18T08:30:32;1.08;;;0.82;;
43435;SDS011;36399;51.444;-2.018;2023-09-18T08:32:59;0.82;;;0.80;;
43435;SDS011;36399;51.444;-2.018;2023-09-18T08:35:25;1.48;;;0.93;;
43435;SDS011;36399;51.444;-2.018;2023-09-18T08:37:54;4.43;;;0.85;;
43435;SDS011;36399;51.444;-2.018;2023-09-18T08:40:20;1.55;;;1.45;;
43435;SDS011;36399;51.444;-2.018;2023-09-18T08:42:48;0.93;;;0.68;;
43435;SDS011;36399;51.444;-2.018;2023-09-18T08:45:19;0.90;;;0.90;;
43435;SDS011;36399;51.444;-2.018;2023-09-18T08:48:09;0.85;;;0.55;;
43435;SDS011;36399;51.444;-2.018;2023-09-18T08:50:36;2.00;;;1.20;;
43435;SDS011;36399;51.444;-2.018;2023-09-18T08:53:04;11.80;;;2.47;;
43435;SDS011;36399;51.444;-2.018;2023-09-18T08:55:30;0.47;;;0.47;;
43435;SDS011;36399;51.444;-2.018;2023-09-18T08:57:58;2.05;;;1.15;;
43435;SDS011;36399;51.444;-2.018;2023-09-18T09:00:25;0.25;;;0.20;;
43435;SDS011;36399;51.444;-2.018;2023-09-18T09:02:52;12.17;;;0.70;;
43435;SDS011;36399;51.444;-2.018;2023-09-18T09:05:20;1.10;;;0.83;;
43435;SDS011;36399;51.444;-2.018;2023-09-18T09:07:48;0.33;;;0.33;;
43435;SDS011;36399;51.444;-2.018;2023-09-18T09:10:15;0.63;;;0.47;;
43435;SDS011;36399;51.444;-2.018;2023-09-18T09:15:32;0.40;;;0.40;;
43435;SDS011;36399;51.444;-2.018;2023-09-18T09:18:11;0.55;;;0.52;;
43435;SDS011;36399;51.444;-2.018;2023-09-18T09:20:38;0.43;;;0.22;;
43435;SDS011;36399;51.444;-2.018;2023-09-18T09:23:05;1.20;;;0.65;;
43435;SDS011;36399;51.444;-2.018;2023-09-18T09:25:32;1.48;;;1.38;;
43435;SDS011;36399;51.444;-2.018;2023-09-18T09:28:00;0.57;;;0.30;;
43435;SDS011;36399;51.444;-2.018;2023-09-18T09:30:30;0.30;;;0.30;;
43435;SDS011;36399;51.444;-2.018;2023-09-18T09:32:58;0.80;;;0.47;;
43435;SDS011;36399;51.444;-2.018;2023-09-18T09:35:31;1.15;;;0.90;;
43435;SDS011;36399;51.444;-2.018;2023-09-18T09:38:00;0.43;;;0.35;;
43435;SDS011;36399;51.444;-2.018;2023-09-18T09:40:32;0.00;;;0.00;;
43435;SDS011;36399;51.444;-2.018;2023-09-18T09:43:03;1.88;;;1.23;;
43435;SDS011;36399;51.444;-2.018;2023-09-18T09:45:30;0.30;;;0.30;;
43435;SDS011;36399;51.444;-2.018;2023-09-18T09:48:04;4.85;;;0.70;;
43435;SDS011;36399;51.444;-2.018;2023-09-18T09:50:31;0.25;;;0.25;;
43435;SDS011;36399;51.444;-2.018;2023-09-18T09:53:01;0.47;;;0.47;;
43435;SDS011;36399;51.444;-2.018;2023-09-18T09:55:31;0.30;;;0.10;;
43435;SDS011;36399;51.444;-2.018;2023-09-18T09:58:00;4.03;;;0.40;;
43435;SDS011;36399;51.444;-2.018;2023-09-18T10:00:28;0.00;;;0.00;;
43435;SDS011;36399;51.444;-2.018;2023-09-18T10:03:00;0.00;;;0.00;;
43435;SDS011;36399;51.444;-2.018;2023-09-18T10:05:47;0.00;;;0.00;;
43435;SDS011;36399;51.444;-2.018;2023-09-18T10:08:17;0.00;;;0.00;;
43435;SDS011;36399;51.444;-2.018;2023-09-18T10:10:55;1.00;;;0.75;;
43435;SDS011;36399;51.444;-2.018;2023-09-18T10:15:53;0.10;;;0.10;;
43435;SDS011;36399;51.444;-2.018;2023-09-18T10:23:59;0.10;;;0.10;;
43435;SDS011;36399;51.444;-2.018;2023-09-18T10:27:01;0.55;;;0.55;;
43435;SDS011;36399;51.444;-2.018;2023-09-18T10:29:28;0.10;;;0.10;;
43435;SDS011;36399;51.444;-2.018;2023-09-18T10:31:56;0.25;;;0.25;;
43435;SDS011;36399;51.444;-2.018;2023-09-18T10:34:23;0.20;;;0.17;;
43435;SDS011;36399;51.444;-2.018;2023-09-18T10:36:51;0.00;;;0.00;;
43435;SDS011;36399;51.444;-2.018;2023-09-18T10:39:19;0.47;;;0.30;;
43435;SDS011;36399;51.444;-2.018;2023-09-18T10:41:51;0.47;;;0.35;;
43435;SDS011;36399;51.444;-2.018;2023-09-18T10:44:19;1.17;;;0.45;;
43435;SDS011;36399;51.444;-2.018;2023-09-18T10:46:46;0.40;;;0.10;;
43435;SDS011;36399;51.444;-2.018;2023-09-18T10:49:14;0.10;;;0.10;;
43435;SDS011;36399;51.444;-2.018;2023-09-18T10:51:41;0.30;;;0.30;;
43435;SDS011;36399;51.444;-2.018;2023-09-18T10:54:08;0.17;;;0.00;;
43435;SDS011;36399;51.444;-2.018;2023-09-18T10:56:35;0.28;;;0.28;;
43435;SDS011;36399;51.444;-2.018;2023-09-18T10:59:02;0.05;;;0.05;;
43435;SDS011;36399;51.444;-2.018;2023-09-18T11:01:31;0.15;;;0.10;;
43435;SDS011;36399;51.444;-2.018;2023-09-18T11:03:59;0.65;;;0.60;;
43435;SDS011;36399;51.444;-2.018;2023-09-18T11:06:27;0.10;;;0.10;;
43435;SDS011;36399;51.444;-2.018;2023-09-18T11:09:00;0.08;;;0.08;;
43435;SDS011;36399;51.444;-2.018;2023-09-18T11:11:29;0.25;;;0.10;;
43435;SDS011;36399;51.444;-2.018;2023-09-18T11:13:58;3.35;;;0.98;;
43435;SDS011;36399;51.444;-2.018;2023-09-18T11:21:27;9.27;;;0.97;;
43435;SDS011;36399;51.444;-2.018;2023-09-18T11:26:43;0.55;;;0.20;;
43435;SDS011;36399;51.444;-2.018;2023-09-18T11:29:11;0.77;;;0.60;;
43435;SDS011;36399;51.444;-2.018;2023-09-18T11:31:51;0.30;;;0.10;;
43435;SDS011;36399;51.444;-2.018;2023-09-18T11:34:20;0.00;;;0.00;;
43435;SDS011;36399;51.444;-2.018;2023-09-18T11:36:46;0.03;;;0.03;;
43435;SDS011;36399;51.444;-2.018;2023-09-18T11:39:13;0.43;;;0.20;;
43435;SDS011;36399;51.444;-2.018;2023-09-18T11:41:39;1.75;;;0.32;;
43435;SDS011;36399;51.444;-2.018;2023-09-18T11:46:45;0.47;;;0.38;;
43435;SDS011;36399;51.444;-2.018;2023-09-18T11:49:14;1.23;;;1.20;;
43435;SDS011;36399;51.444;-2.018;2023-09-18T11:51:46;0.43;;;0.43;;
43435;SDS011;36399;51.444;-2.018;2023-09-18T11:54:12;0.32;;;0.32;;
43435;SDS011;36399;51.444;-2.018;2023-09-18T11:56:39;0.17;;;0.10;;
43435;SDS011;36399;51.444;-2.018;2023-09-18T11:59:05;0.52;;;0.40;;
43435;SDS011;36399;51.444;-2.018;2023-09-18T12:01:32;0.82;;;0.68;;
43435;SDS011;36399;51.444;-2.018;2023-09-18T12:06:34;3.72;;;1.52;;
43435;SDS011;36399;51.444;-2.018;2023-09-18T12:09:02;1.45;;;0.75;;
43435;SDS011;36399;51.444;-2.018;2023-09-18T12:11:29;0.52;;;0.38;;
43435;SDS011;36399;51.444;-2.018;2023-09-18T12:13:55;0.68;;;0.65;;
43435;SDS011;36399;51.444;-2.018;2023-09-18T12:16:23;2.90;;;0.93;;
43435;SDS011;36399;51.444;-2.018;2023-09-18T12:18:49;13.52;;;0.47;;
43435;SDS011;36399;51.444;-2.018;2023-09-18T12:21:16;0.73;;;0.52;;
43435;SDS011;36399;51.444;-2.018;2023-09-18T12:23:43;0.70;;;0.45;;
43435;SDS011;36399;51.444;-2.018;2023-09-18T12:26:12;1.13;;;0.77;;
43435;SDS011;36399;51.444;-2.018;2023-09-18T12:28:39;0.30;;;0.20;;
43435;SDS011;36399;51.444;-2.018;2023-09-18T12:31:09;0.20;;;0.20;;
43435;SDS011;36399;51.444;-2.018;2023-09-18T12:33:37;0.10;;;0.05;;
43435;SDS011;36399;51.444;-2.018;2023-09-18T12:36:04;0.63;;;0.45;;
43435;SDS011;36399;51.444;-2.018;2023-09-18T12:38:31;0.30;;;0.20;;
43435;SDS011;36399;51.444;-2.018;2023-09-18T12:41:01;1.55;;;0.17;;
43435;SDS011;36399;51.444;-2.018;2023-09-18T12:46:02;0.22;;;0.22;;
43435;SDS011;36399;51.444;-2.018;2023-09-18T12:48:29;1.60;;;0.60;;
43435;SDS011;36399;51.444;-2.018;2023-09-18T12:51:01;0.00;;;0.00;;
43435;SDS011;36399;51.444;-2.018;2023-09-18T12:53:29;0.00;;;0.00;;
43435;SDS011;36399;51.444;-2.018;2023-09-18T12:56:03;0.25;;;0.25;;
43435;SDS011;36399;51.444;-2.018;2023-09-18T12:58:31;1.55;;;0.98;;
43435;SDS011;36399;51.444;-2.018;2023-09-18T13:00:57;0.00;;;0.00;;
43435;SDS011;36399;51.444;-2.018;2023-09-18T13:03:23;5.18;;;1.45;;
43435;SDS011;36399;51.444;-2.018;2023-09-18T13:05:49;0.25;;;0.25;;
43435;SDS011;36399;51.444;-2.018;2023-09-18T13:08:23;0.20;;;0.20;;
43435;SDS011;36399;51.444;-2.018;2023-09-18T13:10:49;0.17;;;0.17;;
43435;SDS011;36399;51.444;-2.018;2023-09-18T13:13:20;0.45;;;0.45;;
43435;SDS011;36399;51.444;-2.018;2023-09-18T13:15:47;0.00;;;0.00;;
43435;SDS011;36399;51.444;-2.018;2023-09-18T13:18:14;0.35;;;0.30;;
43435;SDS011;36399;51.444;-2.018;2023-09-18T13:20:42;0.10;;;0.10;;
43435;SDS011;36399;51.444;-2.018;2023-09-18T13:23:09;0.50;;;0.50;;
43435;SDS011;36399;51.444;-2.018;2023-09-18T13:25:36;0.60;;;0.43;;
43435;SDS011;36399;51.444;-2.018;2023-09-18T13:28:07;0.20;;;0.15;;
43435;SDS011;36399;51.444;-2.018;2023-09-18T13:30:38;0.00;;;0.00;;
43435;SDS011;36399;51.444;-2.018;2023-09-18T13:33:09;0.00;;;0.00;;
43435;SDS011;36399;51.444;-2.018;2023-09-18T13:35:42;0.32;;;0.32;;
43435;SDS011;36399;51.444;-2.018;2023-09-18T13:38:09;0.00;;;0.00;;
43435;SDS011;36399;51.444;-2.018;2023-09-18T13:40:42;0.30;;;0.30;;
43435;SDS011;36399;51.444;-2.018;2023-09-18T13:43:11;0.25;;;0.25;;
43435;SDS011;36399;51.444;-2.018;2023-09-18T13:45:41;0.22;;;0.20;;
43435;SDS011;36399;51.444;-2.018;2023-09-18T13:48:07;0.00;;;0.00;;
43435;SDS011;36399;51.444;-2.018;2023-09-18T13:50:34;0.00;;;0.00;;
43435;SDS011;36399;51.444;-2.018;2023-09-18T13:53:01;0.15;;;0.15;;
43435;SDS011;36399;51.444;-2.018;2023-09-18T13:55:30;0.00;;;0.00;;
43435;SDS011;36399;51.444;-2.018;2023-09-18T13:57:56;0.20;;;0.10;;
43435;SDS011;36399;51.444;-2.018;2023-09-18T14:00:22;0.00;;;0.00;;
43435;SDS011;36399;51.444;-2.018;2023-09-18T14:02:48;0.20;;;0.10;;
43435;SDS011;36399;51.444;-2.018;2023-09-18T14:05:14;0.10;;;0.00;;
43435;SDS011;36399;51.444;-2.018;2023-09-18T14:07:40;0.52;;;0.30;;
43435;SDS011;36399;51.444;-2.018;2023-09-18T14:10:07;0.00;;;0.00;;
43435;SDS011;36399;51.444;-2.018;2023-09-18T14:12:39;0.00;;;0.00;;
43435;SDS011;36399;51.444;-2.018;2023-09-18T14:15:07;0.88;;;0.68;;
43435;SDS011;36399;51.444;-2.018;2023-09-18T14:17:34;0.22;;;0.00;;
43435;SDS011;36399;51.444;-2.018;2023-09-18T14:20:00;0.45;;;0.25;;
43435;SDS011;36399;51.444;-2.018;2023-09-18T14:22:30;0.17;;;0.17;;
43435;SDS011;36399;51.444;-2.018;2023-09-18T14:24:59;0.80;;;0.80;;
43435;SDS011;36399;51.444;-2.018;2023-09-18T14:27:25;0.35;;;0.20;;
43435;SDS011;36399;51.444;-2.018;2023-09-18T14:29:51;0.73;;;0.15;;
43435;SDS011;36399;51.444;-2.018;2023-09-18T14:32:17;0.20;;;0.10;;
43435;SDS011;36399;51.444;-2.018;2023-09-18T14:34:44;0.00;;;0.00;;
43435;SDS011;36399;51.444;-2.018;2023-09-18T14:37:11;0.20;;;0.05;;
43435;SDS011;36399;51.444;-2.018;2023-09-18T14:39:37;0.00;;;0.00;;
43435;SDS011;36399;51.444;-2.018;2023-09-18T14:42:03;0.13;;;0.05;;
43435;SDS011;36399;51.444;-2.018;2023-09-18T14:44:29;2.28;;;1.05;;
43435;SDS011;36399;51.444;-2.018;2023-09-18T14:46:58;0.00;;;0.00;;
43435;SDS011;36399;51.444;-2.018;2023-09-18T14:49:25;5.93;;;0.77;;
43435;SDS011;36399;51.444;-2.018;2023-09-18T14:51:53;0.75;;;0.75;;
43435;SDS011;36399;51.444;-2.018;2023-09-18T14:54:20;0.00;;;0.00;;
43435;SDS011;36399;51.444;-2.018;2023-09-18T14:56:46;0.00;;;0.00;;
43435;SDS011;36399;51.444;-2.018;2023-09-18T14:59:12;1.25;;;0.80;;
43435;SDS011;36399;51.444;-2.018;2023-09-18T15:01:38;0.20;;;0.20;;
43435;SDS011;36399;51.444;-2.018;2023-09-18T15:04:04;1.45;;;1.00;;
43435;SDS011;36399;51.444;-2.018;2023-09-18T15:06:30;0.90;;;0.68;;